Time;durP1;ratioP1;P1;durP2;ratioP2;P2;SDS_P1;SDS_P2;PMS_P1;PMS_P2;Temp;Humidity;BMP_temperature;BMP_pressure;BME280_temperature;BME280_humidity;BME280_pressure;Samples;Min_cycle;Max_cycle;Signal;HPM_P1;HPM_P2
2020/12/28 00:02:22;;;;;;;1.10;0.60;;;6.00;99.90;;;;;;5095595;28;20176;-65
2020/12/28 00:04:48;;;;;;;0.70;0.45;;;6.10;99.90;;;;;;5095250;28;20670;-65
2020/12/28 00:07:16;;;;;;;1.10;0.50;;;6.00;99.90;;;;;;5095159;28;20200;-65
2020/12/28 00:09:42;;;;;;;0.80;0.50;;;6.10;99.90;;;;;;5095058;28;20207;-65
2020/12/28 00:12:08;;;;;;;0.70;0.40;;;6.10;99.90;;;;;;5095098;28;20167;-65
2020/12/28 00:14:34;;;;;;;0.90;0.60;;;5.90;99.90;;;;;;5095075;28;20171;-65
2020/12/28 00:16:59;;;;;;;0.90;0.60;;;6.00;99.90;;;;;;5094986;28;20675;-66
2020/12/28 00:19:25;;;;;;;1.10;0.60;;;6.00;99.90;;;;;;5094926;28;20175;-65
2020/12/28 00:21:51;;;;;;;1.27;0.60;;;5.90;99.90;;;;;;5094944;28;20171;-65
2020/12/28 00:24:16;;;;;;;1.57;0.60;;;6.00;99.90;;;;;;5094898;28;20218;-64
2020/12/28 00:26:43;;;;;;;1.00;0.50;;;5.80;99.90;;;;;;5094720;28;20286;-64
2020/12/28 00:29:10;;;;;;;1.83;0.50;;;5.80;99.90;;;;;;5094618;28;20275;-64
2020/12/28 00:31:36;;;;;;;0.93;0.50;;;5.80;99.90;;;;;;5094383;28;20166;-64
2020/12/28 00:34:02;;;;;;;0.80;0.40;;;5.90;99.90;;;;;;5094501;28;20171;-64
2020/12/28 00:36:29;;;;;;;0.80;0.50;;;6.00;99.90;;;;;;5094509;28;20164;-63
2020/12/28 00:38:54;;;;;;;1.30;0.60;;;6.00;99.90;;;;;;5094534;28;20171;-64
2020/12/28 00:41:20;;;;;;;0.97;0.50;;;5.90;99.90;;;;;;5094469;28;20204;-64
2020/12/28 00:43:46;;;;;;;0.90;0.50;;;5.80;99.90;;;;;;5094560;28;20745;-64
2020/12/28 00:46:13;;;;;;;1.10;0.57;;;5.90;99.90;;;;;;5094637;28;20220;-65
2020/12/28 00:48:38;;;;;;;1.10;0.60;;;6.00;99.90;;;;;;5094484;28;20199;-63
2020/12/28 00:51:04;;;;;;;1.20;0.50;;;6.00;99.90;;;;;;5094354;28;20644;-64
2020/12/28 00:53:30;;;;;;;0.80;0.50;;;5.90;99.90;;;;;;5094250;28;20505;-64
2020/12/28 00:55:57;;;;;;;0.80;0.50;;;6.00;99.90;;;;;;5094228;28;20179;-64
2020/12/28 00:58:23;;;;;;;1.00;0.60;;;6.00;99.90;;;;;;5092823;28;20516;-64
2020/12/28 01:00:49;;;;;;;1.03;0.60;;;5.80;99.90;;;;;;5094097;28;20206;-64
2020/12/28 01:03:14;;;;;;;0.80;0.50;;;5.90;99.90;;;;;;5094078;28;20409;-65
2020/12/28 01:05:42;;;;;;;0.90;0.50;;;6.00;99.90;;;;;;5094084;28;20258;-64
2020/12/28 01:08:07;;;;;;;1.15;0.70;;;6.10;99.90;;;;;;5093683;28;20656;-64
2020/12/28 01:10:33;;;;;;;0.83;0.50;;;6.10;99.90;;;;;;5093933;28;20247;-64
2020/12/28 01:12:58;;;;;;;0.80;0.53;;;6.00;99.90;;;;;;5093907;28;20243;-64
2020/12/28 01:15:25;;;;;;;0.90;0.50;;;6.00;99.90;;;;;;5094100;28;20220;-64
2020/12/28 01:17:50;;;;;;;1.02;0.60;;;6.10;99.90;;;;;;5093708;28;20529;-64
2020/12/28 01:20:16;;;;;;;0.70;0.40;;;6.20;99.90;;;;;;5093767;28;20174;-64
2020/12/28 01:22:42;;;;;;;1.03;0.67;;;5.80;99.90;;;;;;5093717;28;20171;-64
2020/12/28 01:25:07;;;;;;;2.40;0.40;;;5.90;99.90;;;;;;5092451;28;20258;-64
2020/12/28 01:27:33;;;;;;;1.83;0.60;;;6.00;99.90;;;;;;5093583;28;20195;-64
2020/12/28 01:29:58;;;;;;;1.20;0.57;;;5.90;99.90;;;;;;5093639;28;20194;-64
2020/12/28 01:32:24;;;;;;;1.10;0.60;;;5.80;99.90;;;;;;5093709;28;20631;-64
2020/12/28 01:34:49;;;;;;;0.80;0.60;;;5.90;99.90;;;;;;5093584;28;20233;-65
2020/12/28 01:37:15;;;;;;;1.00;0.47;;;5.80;99.90;;;;;;5093469;28;20266;-64
2020/12/28 01:39:41;;;;;;;0.90;0.57;;;6.00;99.90;;;;;;5093425;28;20203;-65
2020/12/28 01:42:07;;;;;;;0.80;0.50;;;5.90;99.90;;;;;;5093413;28;20172;-65
2020/12/28 01:44:32;;;;;;;0.70;0.40;;;6.00;99.90;;;;;;5093141;28;20248;-62
2020/12/28 01:46:58;;;;;;;1.20;0.50;;;5.90;99.90;;;;;;5093368;28;20396;-65
2020/12/28 01:49:24;;;;;;;1.07;0.60;;;5.90;99.90;;;;;;5093353;28;20217;-65
2020/12/28 01:51:50;;;;;;;1.00;0.50;;;5.80;99.90;;;;;;5092036;28;20167;-65
2020/12/28 01:54:17;;;;;;;1.20;0.60;;;5.90;99.90;;;;;;5093631;28;20179;-64
2020/12/28 01:56:46;;;;;;;0.90;0.50;;;5.80;99.90;;;;;;5093413;28;20392;-65
2020/12/28 01:59:12;;;;;;;0.80;0.73;;;5.90;99.90;;;;;;5093310;28;20580;-65
2020/12/28 02:01:42;;;;;;;0.90;0.50;;;5.90;99.90;;;;;;5093196;28;20259;-65
2020/12/28 02:04:08;;;;;;;0.63;0.38;;;5.80;99.90;;;;;;5093211;28;20163;-65
2020/12/28 02:06:35;;;;;;;1.15;0.50;;;5.90;99.90;;;;;;5093000;28;20178;-65
2020/12/28 02:09:02;;;;;;;0.77;0.40;;;5.80;99.90;;;;;;5092902;28;20195;-65
2020/12/28 02:11:28;;;;;;;0.80;0.55;;;5.80;99.90;;;;;;5091803;28;20254;-65
2020/12/28 02:13:54;;;;;;;0.80;0.50;;;5.70;99.90;;;;;;5093083;28;20532;-65
2020/12/28 02:16:19;;;;;;;1.23;0.50;;;5.70;99.90;;;;;;5093350;28;20171;-65
2020/12/28 02:18:45;;;;;;;0.73;0.43;;;5.80;99.90;;;;;;5092977;28;20425;-65
2020/12/28 02:21:11;;;;;;;0.70;0.40;;;5.80;99.90;;;;;;5093051;28;20179;-65
2020/12/28 02:23:36;;;;;;;0.80;0.50;;;5.80;99.90;;;;;;5093043;28;20509;-65
2020/12/28 02:26:02;;;;;;;0.80;0.50;;;5.80;99.90;;;;;;5093030;28;20175;-65
2020/12/28 02:28:27;;;;;;;0.80;0.50;;;5.80;99.90;;;;;;5092846;28;20195;-65
2020/12/28 02:30:53;;;;;;;0.70;0.40;;;5.80;99.90;;;;;;5092967;28;20167;-65
2020/12/28 02:33:19;;;;;;;0.70;0.40;;;5.70;99.90;;;;;;5092882;28;20172;-65
2020/12/28 02:35:44;;;;;;;0.70;0.40;;;5.80;99.90;;;;;;5093136;28;20401;-65
2020/12/28 02:38:10;;;;;;;1.80;0.50;;;5.90;99.90;;;;;;5093280;28;20271;-64
2020/12/28 02:40:36;;;;;;;1.27;0.50;;;5.70;99.90;;;;;;5093469;28;20167;-65
2020/12/28 02:43:01;;;;;;;1.00;0.70;;;5.80;99.90;;;;;;5091716;28;20583;-65
2020/12/28 02:45:27;;;;;;;0.83;0.40;;;5.70;99.90;;;;;;5093013;28;20205;-65
2020/12/28 02:47:52;;;;;;;1.00;0.50;;;5.80;99.90;;;;;;5092886;28;20183;-65
2020/12/28 02:50:18;;;;;;;1.07;0.47;;;5.70;99.90;;;;;;5092646;28;20256;-65
2020/12/28 02:52:45;;;;;;;0.70;0.40;;;5.40;99.90;;;;;;5093028;28;20168;-65
2020/12/28 02:55:11;;;;;;;0.80;0.40;;;5.40;99.90;;;;;;5093505;28;20156;-65
2020/12/28 02:57:37;;;;;;;1.42;0.80;;;5.50;99.90;;;;;;5096438;28;20188;-65
2020/12/28 03:00:04;;;;;;;1.37;0.40;;;5.40;99.90;;;;;;5096479;28;20517;-65
2020/12/28 03:02:30;;;;;;;0.90;0.50;;;5.50;99.90;;;;;;5096610;28;20183;-65
2020/12/28 03:04:55;;;;;;;0.80;0.67;;;5.60;99.90;;;;;;5096349;28;20187;-65
2020/12/28 03:07:21;;;;;;;1.00;0.50;;;5.50;99.90;;;;;;5096248;28;20191;-65
2020/12/28 03:09:47;;;;;;;0.90;0.50;;;5.50;1.00;;;;;;5096094;28;20236;-65
2020/12/28 03:12:12;;;;;;;0.90;0.40;;;5.50;1.00;;;;;;5096284;28;20195;-65
2020/12/28 03:14:38;;;;;;;0.67;0.40;;;5.60;1.00;;;;;;5096330;28;20474;-65
2020/12/28 03:17:03;;;;;;;0.90;0.40;;;5.70;1.00;;;;;;5096443;28;20209;-64
2020/12/28 03:19:31;;;;;;;0.70;0.40;;;5.70;1.00;;;;;;5096132;28;20250;-65
2020/12/28 03:21:57;;;;;;;1.00;0.40;;;5.70;1.00;;;;;;5096108;28;20236;-65
2020/12/28 03:24:22;;;;;;;1.65;0.45;;;5.60;1.00;;;;;;5096017;28;20258;-65
2020/12/28 03:26:48;;;;;;;0.73;0.40;;;5.70;1.00;;;;;;5095860;28;20283;-65
2020/12/28 03:29:13;;;;;;;0.87;0.60;;;5.80;1.00;;;;;;5095898;28;20198;-64
2020/12/28 03:31:39;;;;;;;2.90;0.53;;;5.80;99.90;;;;;;5095916;28;20174;-65
2020/12/28 03:34:06;;;;;;;0.87;0.40;;;5.90;99.90;;;;;;5095886;28;20532;-65
2020/12/28 03:36:32;;;;;;;0.73;0.45;;;5.80;99.90;;;;;;5095701;28;20376;-65
2020/12/28 03:38:57;;;;;;;0.70;0.40;;;5.80;99.90;;;;;;5095801;28;20254;-65
2020/12/28 03:41:23;;;;;;;0.70;0.40;;;5.70;99.90;;;;;;5095705;28;20635;-65
2020/12/28 03:43:48;;;;;;;0.90;0.40;;;5.80;99.90;;;;;;5095700;28;20167;-65
2020/12/28 03:46:14;;;;;;;0.90;0.40;;;5.70;99.90;;;;;;5095887;28;20164;-65
2020/12/28 03:48:39;;;;;;;0.70;0.40;;;5.70;99.90;;;;;;5095581;28;20722;-65
2020/12/28 03:51:05;;;;;;;1.00;0.50;;;5.60;1.00;;;;;;5095601;28;20233;-65
2020/12/28 03:53:31;;;;;;;0.70;0.40;;;5.90;1.00;;;;;;5095509;28;20167;-65
2020/12/28 03:55:56;;;;;;;0.83;0.40;;;5.70;1.00;;;;;;5095548;28;20213;-65
2020/12/28 03:58:22;;;;;;;1.03;0.47;;;5.80;1.00;;;;;;5094064;28;20218;-65
2020/12/28 04:00:47;;;;;;;0.90;0.50;;;5.80;1.00;;;;;;5095636;28;20623;-65
2020/12/28 04:03:13;;;;;;;0.90;0.50;;;5.80;1.00;;;;;;5095405;28;20281;-65
2020/12/28 04:05:38;;;;;;;0.80;0.50;;;5.80;99.90;;;;;;5095217;28;20171;-65
2020/12/28 04:08:06;;;;;;;0.97;0.50;;;5.90;99.90;;;;;;5094805;28;20217;-65
2020/12/28 04:10:32;;;;;;;0.80;0.50;;;5.80;99.90;;;;;;5095297;28;20515;-66
2020/12/28 04:12:58;;;;;;;0.70;0.40;;;5.70;99.90;;;;;;5095120;28;20168;-65
2020/12/28 04:15:23;;;;;;;0.70;0.40;;;5.70;99.90;;;;;;5095077;28;20247;-65
2020/12/28 04:17:49;;;;;;;1.10;0.50;;;5.80;99.90;;;;;;5094971;28;20187;-65
2020/12/28 04:20:15;;;;;;;0.80;0.50;;;5.70;99.90;;;;;;5094036;28;20176;-65
2020/12/28 04:22:40;;;;;;;0.80;0.40;;;5.50;99.90;;;;;;5095008;28;20199;-65
2020/12/28 04:25:06;;;;;;;0.70;0.40;;;5.60;99.90;;;;;;5094897;28;20246;-65
2020/12/28 04:27:31;;;;;;;1.43;0.40;;;5.60;99.90;;;;;;5094847;28;20194;-65
2020/12/28 04:29:57;;;;;;;0.70;0.40;;;5.70;99.90;;;;;;5095140;28;20548;-65
2020/12/28 04:32:23;;;;;;;0.97;0.50;;;5.80;99.90;;;;;;5094790;28;20167;-65
2020/12/28 04:34:48;;;;;;;0.80;0.47;;;5.60;99.90;;;;;;5094669;28;20160;-65
2020/12/28 04:37:14;;;;;;;0.70;0.40;;;5.60;1.00;;;;;;5093269;28;20184;-65
2020/12/28 04:39:39;;;;;;;0.70;0.40;;;5.60;99.90;;;;;;5093296;28;20171;-65
2020/12/28 04:42:05;;;;;;;0.93;0.40;;;5.70;99.90;;;;;;5094661;28;20674;-65
2020/12/28 04:44:30;;;;;;;0.70;0.40;;;5.70;99.90;;;;;;5094681;28;20172;-65
2020/12/28 04:46:56;;;;;;;1.43;0.50;;;5.50;99.90;;;;;;5094634;28;20194;-65
2020/12/28 04:49:23;;;;;;;0.80;0.40;;;5.70;99.90;;;;;;5094648;28;20191;-65
2020/12/28 04:51:53;;;;;;;1.10;0.50;;;5.70;99.90;;;;;;5094741;28;20488;-65
2020/12/28 04:54:19;;;;;;;0.80;0.50;;;5.70;99.90;;;;;;5094340;28;20535;-65
2020/12/28 04:56:44;;;;;;;1.00;0.50;;;5.70;99.90;;;;;;5094428;28;20270;-65
2020/12/28 04:59:10;;;;;;;0.97;0.60;;;5.80;99.90;;;;;;5093258;28;20817;-65
2020/12/28 05:01:35;;;;;;;1.00;0.50;;;5.60;99.90;;;;;;5094375;28;20671;-65
2020/12/28 05:04:01;;;;;;;1.93;0.60;;;5.80;99.90;;;;;;5094487;28;20231;-65
2020/12/28 05:06:26;;;;;;;1.10;0.40;;;5.80;99.90;;;;;;5094588;28;20233;-65
2020/12/28 05:08:54;;;;;;;0.70;0.40;;;5.80;99.90;;;;;;5094145;28;20242;-65
2020/12/28 05:11:20;;;;;;;0.70;0.40;;;5.80;99.90;;;;;;5094290;28;20221;-65
2020/12/28 05:13:50;;;;;;;1.30;0.40;;;5.70;99.90;;;;;;5093953;28;20167;-65
2020/12/28 05:16:15;;;;;;;1.60;0.70;;;5.60;99.90;;;;;;5093868;28;20167;-65
2020/12/28 05:18:41;;;;;;;0.70;0.40;;;5.60;99.90;;;;;;5093311;28;20206;-65
2020/12/28 05:21:07;;;;;;;0.70;0.40;;;5.50;99.90;;;;;;5093815;28;20415;-65
2020/12/28 05:23:33;;;;;;;0.70;0.40;;;5.60;99.90;;;;;;5093778;28;20210;-65
2020/12/28 05:25:59;;;;;;;1.13;0.47;;;5.70;99.90;;;;;;5093948;28;20175;-65
2020/12/28 05:28:28;;;;;;;0.77;0.40;;;5.70;99.90;;;;;;5093565;28;20214;-65
2020/12/28 05:30:59;;;;;;;1.95;0.50;;;5.70;99.90;;;;;;5093727;28;20164;-65
2020/12/28 05:33:31;;;;;;;0.80;0.40;;;5.80;99.90;;;;;;5093979;28;20235;-65
2020/12/28 05:35:57;;;;;;;0.80;0.50;;;5.80;99.90;;;;;;5093801;28;20156;-64
2020/12/28 05:38:25;;;;;;;1.07;0.50;;;5.70;99.90;;;;;;5093444;28;20548;-65
2020/12/28 05:41:03;;;;;;;0.80;0.40;;;5.80;99.90;;;;;;5093579;28;20208;-65
2020/12/28 05:43:30;;;;;;;0.70;0.40;;;5.70;99.90;;;;;;5093702;28;20242;-65
2020/12/28 05:45:55;;;;;;;0.70;0.40;;;5.90;99.90;;;;;;5093418;28;20250;-65
2020/12/28 05:48:23;;;;;;;0.80;0.40;;;6.00;99.90;;;;;;5111558;22;20282;-68
2020/12/28 05:50:57;;;;;;;0.80;0.50;;;6.00;99.90;;;;;;5078863;28;20157;-67
2020/12/28 05:53:24;;;;;;;3.05;0.60;;;6.00;99.90;;;;;;5077978;28;20152;-68
2020/12/28 05:55:50;;;;;;;0.80;0.40;;;6.00;99.90;;;;;;5094639;28;20172;-68
2020/12/28 05:58:18;;;;;;;0.80;0.50;;;5.90;99.90;;;;;;5085277;28;20195;-67
2020/12/28 06:00:45;;;;;;;1.10;0.60;;;6.00;99.90;;;;;;5098355;28;20144;-69
2020/12/28 06:03:12;;;;;;;2.45;0.50;;;6.10;99.90;;;;;;5098422;28;20156;-68
2020/12/28 06:05:38;;;;;;;1.30;0.90;;;6.00;99.90;;;;;;5098298;28;20160;-67
2020/12/28 06:08:04;;;;;;;1.30;0.70;;;5.80;99.90;;;;;;5094732;28;20234;-68
2020/12/28 06:10:34;;;;;;;1.00;0.50;;;5.90;99.90;;;;;;5096820;28;20178;-68
2020/12/28 06:13:00;;;;;;;1.95;0.50;;;5.80;99.90;;;;;;5098345;28;20160;-67
2020/12/28 06:15:25;;;;;;;1.73;0.50;;;5.90;99.90;;;;;;5098237;28;20210;-66
2020/12/28 06:17:52;;;;;;;0.80;0.50;;;5.80;99.90;;;;;;5098105;28;20220;-67
2020/12/28 06:20:17;;;;;;;3.17;0.70;;;5.80;99.90;;;;;;5098505;28;20167;-66
2020/12/28 06:22:44;;;;;;;1.57;0.63;;;5.70;99.90;;;;;;5095437;28;20176;-66
2020/12/28 06:25:14;;;;;;;1.45;0.60;;;5.80;99.90;;;;;;5092980;28;20183;-67
2020/12/28 06:27:41;;;;;;;1.00;0.50;;;5.90;99.90;;;;;;5090756;28;20148;-67
2020/12/28 06:30:18;;;;;;;0.80;0.50;;;5.90;99.90;;;;;;5094381;28;20198;-67
2020/12/28 06:32:47;;;;;;;0.90;0.60;;;5.90;99.90;;;;;;5102293;28;20171;-67
2020/12/28 06:35:14;;;;;;;1.10;0.70;;;5.80;99.90;;;;;;5102490;28;20168;-66
2020/12/28 06:37:41;;;;;;;1.00;0.60;;;5.80;99.90;;;;;;5102114;28;20140;-68
2020/12/28 06:40:08;;;;;;;0.80;0.50;;;5.70;99.90;;;;;;5102216;28;20160;-67
2020/12/28 06:42:33;;;;;;;1.10;0.50;;;5.80;99.90;;;;;;5102149;28;20206;-66
2020/12/28 06:45:13;;;;;;;1.13;0.63;;;5.60;99.90;;;;;;5101570;28;20180;-66
2020/12/28 06:47:39;;;;;;;1.50;0.90;;;5.50;99.90;;;;;;5101787;28;20144;-66
2020/12/28 06:50:05;;;;;;;2.33;1.38;;;5.60;99.90;;;;;;5102110;28;20184;-69
2020/12/28 06:52:30;;;;;;;1.90;1.20;;;5.60;99.90;;;;;;5101796;28;20212;-66
2020/12/28 06:55:05;;;;;;;1.90;1.30;;;5.60;99.90;;;;;;5101608;28;20156;-66
2020/12/28 06:57:31;;;;;;;3.92;1.10;;;5.60;99.90;;;;;;5099980;28;20207;-68
2020/12/28 06:59:56;;;;;;;1.10;0.70;;;5.60;99.90;;;;;;5099952;28;20159;-66
2020/12/28 07:02:22;;;;;;;2.03;0.90;;;5.60;99.90;;;;;;5101818;28;20163;-67
2020/12/28 07:04:49;;;;;;;1.60;0.60;;;5.60;99.90;;;;;;5101716;28;20168;-68
2020/12/28 07:07:14;;;;;;;1.42;0.70;;;5.50;99.90;;;;;;5101507;28;20144;-67
2020/12/28 07:09:40;;;;;;;0.83;0.50;;;5.50;99.90;;;;;;5101505;28;20208;-67
2020/12/28 07:12:10;;;;;;;2.20;1.20;;;5.50;99.90;;;;;;5101058;28;20207;-65
2020/12/28 07:14:36;;;;;;;1.00;0.70;;;5.50;99.90;;;;;;5101479;28;20160;-67
2020/12/28 07:17:02;;;;;;;0.80;0.50;;;5.40;99.90;;;;;;5101377;28;20183;-66
2020/12/28 07:19:28;;;;;;;1.55;0.50;;;5.40;99.90;;;;;;5101324;28;20179;-68
2020/12/28 07:21:54;;;;;;;0.80;0.50;;;5.40;99.90;;;;;;5100915;28;20167;-66
2020/12/28 07:24:20;;;;;;;0.80;0.50;;;5.50;99.90;;;;;;5100997;28;20187;-67
2020/12/28 07:26:47;;;;;;;1.00;0.60;;;5.50;88.40;;;;;;5101465;28;20385;-68
2020/12/28 07:29:19;;;;;;;1.33;0.52;;;5.40;99.90;;;;;;5101107;28;20191;-67
2020/12/28 07:31:45;;;;;;;0.90;0.60;;;5.50;72.10;;;;;;5100582;28;20164;-65
2020/12/28 07:34:20;;;;;;;1.40;0.65;;;5.40;54.10;;;;;;5083430;28;20168;-66
2020/12/28 07:36:50;;;;;;;1.55;0.50;;;5.40;53.90;;;;;;5100400;28;20250;-68
2020/12/28 07:39:18;;;;;;;3.15;1.00;;;5.40;56.20;;;;;;5101036;28;20208;-68
2020/12/28 07:41:45;;;;;;;1.20;0.75;;;5.40;92.20;;;;;;5100485;28;20152;-68
2020/12/28 07:44:15;;;;;;;3.42;0.85;;;5.40;74.00;;;;;;5100801;28;20169;-68
2020/12/28 07:46:57;;;;;;;3.65;0.80;;;5.30;63.50;;;;;;5100660;28;20160;-68
2020/12/28 07:49:29;;;;;;;2.63;0.60;;;5.20;54.30;;;;;;5100594;28;20211;-68
2020/12/28 07:52:12;;;;;;;3.05;0.60;;;4.90;99.90;;;;;;5100848;28;20211;-68
2020/12/28 07:54:44;;;;;;;0.80;0.52;;;4.80;99.90;;;;;;5100534;28;20156;-67
2020/12/28 07:57:17;;;;;;;2.55;0.45;;;4.80;99.90;;;;;;5100388;28;20144;-66
2020/12/28 07:59:55;;;;;;;1.30;0.70;;;4.60;99.90;;;;;;5100672;28;20176;-68
2020/12/28 08:02:28;;;;;;;1.05;0.55;;;4.30;99.90;;;;;;5100442;28;20141;-66
2020/12/28 08:04:56;;;;;;;1.95;0.80;;;4.20;99.90;;;;;;5100502;28;20176;-68
2020/12/28 08:07:24;;;;;;;0.75;0.47;;;4.70;99.90;;;;;;5100083;28;20153;-67
2020/12/28 08:09:54;;;;;;;2.15;0.60;;;4.60;99.90;;;;;;5100133;28;20248;-67
2020/12/28 08:12:21;;;;;;;1.98;0.63;;;4.50;99.90;;;;;;5100014;28;20161;-66
2020/12/28 08:14:53;;;;;;;4.55;1.67;;;4.20;99.90;;;;;;5100035;28;20167;-68
2020/12/28 08:17:22;;;;;;;1.30;0.68;;;4.00;1.00;;;;;;5099537;28;20157;-66
2020/12/28 08:19:48;;;;;;;1.20;0.60;;;4.00;1.00;;;;;;5099206;28;20175;-67
2020/12/28 08:22:21;;;;;;;3.33;0.80;;;4.00;1.00;;;;;;5098747;28;20183;-65
2020/12/28 08:24:58;;;;;;;1.10;0.70;;;4.10;1.00;;;;;;5099163;28;20160;-66
2020/12/28 08:27:26;;;;;;;1.40;0.90;;;3.90;1.00;;;;;;5099446;28;20216;-66
2020/12/28 08:29:52;;;;;;;1.33;0.77;;;4.20;1.00;;;;;;5099269;28;20184;-68
2020/12/28 08:32:17;;;;;;;1.55;0.80;;;4.40;99.90;;;;;;5099680;28;20157;-67
2020/12/28 08:34:56;;;;;;;5.03;0.70;;;4.20;99.90;;;;;;5099846;28;20183;-68
2020/12/28 08:37:22;;;;;;;1.73;0.85;;;4.70;99.90;;;;;;5099714;28;20165;-67
2020/12/28 08:39:48;;;;;;;1.57;0.80;;;5.00;99.90;;;;;;5099535;28;20180;-67
2020/12/28 08:42:14;;;;;;;0.90;0.60;;;4.80;99.90;;;;;;5099335;28;20191;-68
2020/12/28 08:44:43;;;;;;;1.93;0.80;;;5.20;99.90;;;;;;5099062;28;20157;-66
2020/12/28 08:47:13;;;;;;;1.92;0.90;;;5.30;99.90;;;;;;5099212;28;20415;-65
2020/12/28 08:49:45;;;;;;;1.52;0.60;;;5.60;86.90;;;;;;5099432;28;20266;-67
2020/12/28 08:52:13;;;;;;;1.55;0.70;;;5.80;64.00;;;;;;5098519;28;20156;-66
2020/12/28 08:54:39;;;;;;;1.15;0.75;;;5.90;38.80;;;;;;5098762;28;20187;-68
2020/12/28 08:57:05;;;;;;;1.27;0.73;;;6.20;22.50;;;;;;5099172;28;20249;-67
2020/12/28 08:59:31;;;;;;;1.07;0.63;;;6.20;26.20;;;;;;5098960;28;20196;-67
2020/12/28 09:01:57;;;;;;;1.00;0.60;;;6.10;23.40;;;;;;5098918;28;20377;-68
2020/12/28 09:04:24;;;;;;;1.40;0.75;;;5.90;47.50;;;;;;5098801;28;20393;-67
2020/12/28 09:06:51;;;;;;;1.33;0.80;;;5.90;39.20;;;;;;5099302;28;20169;-67
2020/12/28 09:09:17;;;;;;;1.20;0.70;;;5.60;91.60;;;;;;5099111;28;20192;-67
2020/12/28 09:11:43;;;;;;;1.63;0.80;;;6.00;27.00;;;;;;5098925;28;20161;-69
2020/12/28 09:14:09;;;;;;;1.23;0.65;;;5.80;26.00;;;;;;5099132;28;20202;-68
2020/12/28 09:16:35;;;;;;;1.70;0.80;;;5.90;26.00;;;;;;5099131;28;20252;-67
2020/12/28 09:19:01;;;;;;;1.10;0.60;;;6.00;20.20;;;;;;5098740;28;20413;-68
2020/12/28 09:21:27;;;;;;;3.10;0.70;;;5.60;43.60;;;;;;5099035;28;20161;-68
2020/12/28 09:23:52;;;;;;;1.93;0.80;;;5.90;40.50;;;;;;5099004;28;20194;-69
2020/12/28 09:26:18;;;;;;;1.83;0.83;;;6.00;20.90;;;;;;5099058;28;20160;-67
2020/12/28 09:28:44;;;;;;;1.97;0.90;;;6.00;19.60;;;;;;5098182;28;20267;-68
2020/12/28 09:31:10;;;;;;;1.30;0.90;;;6.10;16.00;;;;;;5098609;28;20167;-69
2020/12/28 09:33:35;;;;;;;3.10;1.20;;;6.30;10.00;;;;;;5098445;28;20421;-67
2020/12/28 09:36:01;;;;;;;1.37;0.60;;;6.30;1.00;;;;;;5098211;28;20240;-67
2020/12/28 09:38:27;;;;;;;2.07;0.80;;;6.30;1.50;;;;;;5097938;28;20203;-67
2020/12/28 09:40:52;;;;;;;3.97;1.00;;;6.20;2.60;;;;;;5098566;28;20152;-67
2020/12/28 09:43:18;;;;;;;1.97;0.90;;;6.20;2.60;;;;;;5097524;28;20176;-67
2020/12/28 09:45:43;;;;;;;4.03;1.20;;;6.20;12.10;;;;;;5098445;28;20173;-67
2020/12/28 09:48:09;;;;;;;3.03;0.90;;;6.20;1.00;;;;;;5098224;28;20231;-69
2020/12/28 09:50:36;;;;;;;1.93;0.80;;;6.30;7.40;;;;;;5098499;28;20174;-68
2020/12/28 09:53:02;;;;;;;2.50;0.70;;;6.10;9.20;;;;;;5098273;28;20180;-67
2020/12/28 09:55:28;;;;;;;2.53;0.88;;;6.10;15.10;;;;;;5098234;28;20168;-66
2020/12/28 09:57:53;;;;;;;1.77;0.67;;;6.10;10.60;;;;;;5098262;28;20190;-67
2020/12/28 10:00:19;;;;;;;1.97;1.00;;;6.20;1.30;;;;;;5098023;28;20203;-67
2020/12/28 10:02:45;;;;;;;1.33;1.03;;;6.20;1.00;;;;;;5098176;28;20160;-68
2020/12/28 10:05:11;;;;;;;1.30;0.70;;;6.30;1.00;;;;;;5097423;28;20188;-67
2020/12/28 10:07:37;;;;;;;1.70;0.73;;;6.30;1.00;;;;;;5097882;28;20152;-67
2020/12/28 10:10:07;;;;;;;3.03;0.60;;;6.40;1.00;;;;;;5097883;28;20191;-68
2020/12/28 10:12:34;;;;;;;1.15;0.85;;;6.50;1.00;;;;;;5097881;28;20149;-68
2020/12/28 10:14:59;;;;;;;3.28;0.85;;;6.50;1.00;;;;;;5097773;28;20160;-68
2020/12/28 10:17:25;;;;;;;1.67;0.90;;;6.50;1.00;;;;;;5098263;28;20161;-67
2020/12/28 10:19:51;;;;;;;4.67;1.07;;;6.70;1.00;;;;;;5098109;28;20180;-67
2020/12/28 10:22:16;;;;;;;1.90;0.80;;;6.80;1.00;;;;;;5097902;28;20191;-67
2020/12/28 10:24:42;;;;;;;1.60;0.90;;;6.80;1.00;;;;;;5097915;28;20196;-67
2020/12/28 10:27:08;;;;;;;1.03;0.77;;;6.80;1.00;;;;;;5098013;28;20164;-68
2020/12/28 10:29:33;;;;;;;3.23;0.70;;;6.90;1.00;;;;;;5097301;28;20208;-66
2020/12/28 10:31:59;;;;;;;1.83;0.83;;;6.90;1.00;;;;;;5098020;28;20245;-66
2020/12/28 10:34:26;;;;;;;3.00;1.37;;;6.90;1.00;;;;;;5097413;28;20179;-67
2020/12/28 10:36:52;;;;;;;4.93;1.63;;;6.90;1.00;;;;;;5097793;28;20149;-65
2020/12/28 10:39:17;;;;;;;2.03;1.00;;;7.00;1.00;;;;;;5097821;28;20238;-67
2020/12/28 10:41:43;;;;;;;1.87;0.70;;;7.00;1.00;;;;;;5097779;28;20422;-69
2020/12/28 10:44:09;;;;;;;2.10;1.30;;;6.90;1.00;;;;;;5098122;28;20176;-67
2020/12/28 10:46:37;;;;;;;1.87;1.00;;;6.80;1.00;;;;;;5098191;28;20483;-68
2020/12/28 10:49:04;;;;;;;3.00;1.15;;;6.90;1.00;;;;;;5095394;28;20526;-66
2020/12/28 10:51:29;;;;;;;2.30;0.80;;;6.80;1.00;;;;;;5095812;28;20161;-66
2020/12/28 10:53:55;;;;;;;2.43;0.97;;;6.80;1.00;;;;;;5097169;28;20171;-68
2020/12/28 10:56:22;;;;;;;1.10;0.57;;;7.00;1.00;;;;;;5097366;28;20168;-67
2020/12/28 10:58:47;;;;;;;2.58;1.05;;;6.90;1.00;;;;;;5097416;28;20171;-68
2020/12/28 11:01:13;;;;;;;2.53;0.90;;;7.00;1.00;;;;;;5097796;28;20212;-67
2020/12/28 11:03:38;;;;;;;1.50;0.97;;;7.00;1.00;;;;;;5096646;28;20176;-67
2020/12/28 11:06:04;;;;;;;1.40;1.00;;;6.80;1.00;;;;;;5097842;28;20164;-67
2020/12/28 11:08:30;;;;;;;1.47;0.70;;;6.80;1.00;;;;;;5097343;28;20199;-67
2020/12/28 11:10:55;;;;;;;1.27;0.70;;;6.90;1.00;;;;;;5097348;28;20152;-67
2020/12/28 11:13:21;;;;;;;2.17;1.13;;;7.00;1.00;;;;;;5097814;28;20406;-69
2020/12/28 11:15:46;;;;;;;1.00;0.70;;;7.10;1.00;;;;;;5096819;28;20164;-68
2020/12/28 11:18:12;;;;;;;1.47;0.60;;;7.00;1.00;;;;;;5101097;28;20188;-67
2020/12/28 11:20:37;;;;;;;1.50;0.90;;;7.10;1.00;;;;;;5100927;28;20188;-68
2020/12/28 11:23:03;;;;;;;2.30;0.90;;;7.10;1.00;;;;;;5101159;28;20172;-67
2020/12/28 11:25:29;;;;;;;3.30;1.20;;;7.10;1.00;;;;;;5100473;28;20188;-67
2020/12/28 11:27:54;;;;;;;2.13;0.70;;;7.30;1.00;;;;;;5099946;28;20176;-68
2020/12/28 11:30:20;;;;;;;2.27;0.70;;;7.40;1.00;;;;;;5100736;28;20190;-67
2020/12/28 11:32:45;;;;;;;1.30;0.90;;;7.50;1.00;;;;;;5100855;28;20183;-68
2020/12/28 11:35:11;;;;;;;2.77;0.83;;;7.80;1.00;;;;;;5100575;28;20160;-67
2020/12/28 11:37:36;;;;;;;5.70;1.10;;;7.90;1.00;;;;;;5100474;28;20181;-68
2020/12/28 11:40:03;;;;;;;1.93;1.00;;;7.90;1.00;;;;;;5100910;28;20175;-67
2020/12/28 11:42:30;;;;;;;2.58;0.90;;;7.90;1.00;;;;;;5100703;28;20169;-67
2020/12/28 11:44:56;;;;;;;1.83;1.25;;;8.00;1.00;;;;;;5100444;28;20162;-67
2020/12/28 11:47:21;;;;;;;2.40;1.33;;;7.90;1.00;;;;;;5099714;28;20180;-68
2020/12/28 11:49:47;;;;;;;1.77;1.33;;;7.80;1.00;;;;;;5100269;28;20196;-68
2020/12/28 11:52:13;;;;;;;1.87;1.00;;;7.80;1.00;;;;;;5100666;28;20211;-67
2020/12/28 11:54:39;;;;;;;2.40;1.50;;;7.80;1.00;;;;;;5100430;28;20187;-66
2020/12/28 11:57:04;;;;;;;3.33;1.40;;;8.00;1.00;;;;;;5100177;28;20385;-67
2020/12/28 11:59:30;;;;;;;2.60;1.43;;;8.30;1.00;;;;;;5100124;28;20200;-66
2020/12/28 12:01:55;;;;;;;1.30;1.00;;;8.40;1.00;;;;;;5100497;28;20176;-66
2020/12/28 12:04:48;;;;;;;1.20;1.03;;;8.30;1.00;;;;;;5099964;28;20160;-66
2020/12/28 12:07:06;;;;;;;5.70;1.75;;;8.30;1.00;;;;;;5099999;28;20168;-66
2020/12/28 12:09:32;;;;;;;3.80;1.33;;;8.30;1.00;;;;;;5099535;28;20199;-67
2020/12/28 12:11:57;;;;;;;2.20;0.80;;;8.30;1.00;;;;;;5100235;28;20192;-66
2020/12/28 12:14:23;;;;;;;1.20;1.10;;;8.40;1.00;;;;;;5099567;28;20148;-66
2020/12/28 12:16:49;;;;;;;2.40;1.30;;;8.70;1.00;;;;;;5099876;28;20172;-69
2020/12/28 12:19:14;;;;;;;1.67;0.80;;;9.00;1.00;;;;;;5099435;28;20176;-68
2020/12/28 12:21:40;;;;;;;3.07;1.17;;;9.30;1.00;;;;;;5099891;28;20179;-67
2020/12/28 12:24:05;;;;;;;1.60;1.00;;;9.50;1.00;;;;;;5099335;28;20190;-66
2020/12/28 12:26:34;;;;;;;4.50;1.40;;;9.70;1.00;;;;;;5099066;28;20160;-66
2020/12/28 12:29:00;;;;;;;1.80;1.40;;;9.70;1.00;;;;;;5098606;28;20199;-66
2020/12/28 12:31:26;;;;;;;5.13;1.20;;;10.00;1.00;;;;;;5099837;28;20145;-70
2020/12/28 12:33:52;;;;;;;2.53;1.10;;;10.00;1.00;;;;;;5098932;28;20426;-67
2020/12/28 12:36:17;;;;;;;5.43;1.50;;;10.00;1.00;;;;;;5098529;28;20205;-66
2020/12/28 12:38:44;;;;;;;1.47;1.00;;;10.20;1.00;;;;;;5099122;28;20211;-66
2020/12/28 12:41:15;;;;;;;2.60;1.23;;;9.70;1.00;;;;;;5099161;28;20192;-68
2020/12/28 12:43:42;;;;;;;7.00;1.10;;;9.90;1.00;;;;;;5098220;28;20417;-65
2020/12/28 12:46:09;;;;;;;3.03;0.93;;;9.70;1.00;;;;;;5099548;28;20454;-68
2020/12/28 12:48:37;;;;;;;2.00;1.30;;;9.50;1.00;;;;;;5098568;28;20459;-66
2020/12/28 12:51:03;;;;;;;1.87;0.90;;;9.30;1.00;;;;;;5098918;28;20382;-66
2020/12/28 12:53:28;;;;;;;2.90;1.00;;;9.30;1.00;;;;;;5098827;28;20414;-68
2020/12/28 12:55:54;;;;;;;2.07;1.43;;;9.40;1.00;;;;;;5098931;28;20330;-68
2020/12/28 12:58:19;;;;;;;9.73;1.27;;;9.60;1.00;;;;;;5098909;28;20226;-67